sensor_id;sensor_type;location;lat;lon;timestamp;P1;durP1;ratioP1;P2;durP2;ratioP2
45730;SDS011;31440;48.584;13.460;2023-01-15T00:02:32;2.83;;;1.70;;
45730;SDS011;31440;48.584;13.460;2023-01-15T00:05:37;4.88;;;1.88;;
45730;SDS011;31440;48.584;13.460;2023-01-15T00:08:42;6.43;;;2.20;;
45730;SDS011;31440;48.584;13.460;2023-01-15T00:11:47;2.85;;;1.92;;
45730;SDS011;31440;48.584;13.460;2023-01-15T00:14:52;3.35;;;1.95;;
45730;SDS011;31440;48.584;13.460;2023-01-15T00:17:57;2.97;;;1.50;;
45730;SDS011;31440;48.584;13.460;2023-01-15T00:21:02;2.45;;;1.45;;
45730;SDS011;31440;48.584;13.460;2023-01-15T00:24:08;2.53;;;1.25;;
45730;SDS011;31440;48.584;13.460;2023-01-15T00:30:42;2.67;;;1.55;;
45730;SDS011;31440;48.584;13.460;2023-01-15T00:33:46;3.85;;;1.55;;
45730;SDS011;31440;48.584;13.460;2023-01-15T00:36:53;2.80;;;1.58;;
45730;SDS011;31440;48.584;13.460;2023-01-15T00:39:57;2.50;;;1.38;;
45730;SDS011;31440;48.584;13.460;2023-01-15T00:43:02;2.35;;;1.38;;
45730;SDS011;31440;48.584;13.460;2023-01-15T00:46:07;2.15;;;1.52;;
45730;SDS011;31440;48.584;13.460;2023-01-15T00:49:12;3.63;;;1.73;;
45730;SDS011;31440;48.584;13.460;2023-01-15T00:52:17;3.97;;;1.90;;
45730;SDS011;31440;48.584;13.460;2023-01-15T00:55:22;8.13;;;1.60;;
45730;SDS011;31440;48.584;13.460;2023-01-15T00:58:26;5.90;;;1.88;;
45730;SDS011;31440;48.584;13.460;2023-01-15T01:01:31;2.83;;;1.40;;
45730;SDS011;31440;48.584;13.460;2023-01-15T01:04:36;2.85;;;1.40;;
45730;SDS011;31440;48.584;13.460;2023-01-15T01:07:42;2.60;;;1.52;;
45730;SDS011;31440;48.584;13.460;2023-01-15T01:10:46;6.90;;;1.75;;
45730;SDS011;31440;48.584;13.460;2023-01-15T01:13:52;2.42;;;1.63;;
45730;SDS011;31440;48.584;13.460;2023-01-15T01:16:57;4.50;;;2.10;;
45730;SDS011;31440;48.584;13.460;2023-01-15T01:20:02;4.95;;;1.60;;
45730;SDS011;31440;48.584;13.460;2023-01-15T01:23:08;4.35;;;2.22;;
45730;SDS011;31440;48.584;13.460;2023-01-15T01:26:12;7.18;;;3.55;;
45730;SDS011;31440;48.584;13.460;2023-01-15T01:29:19;4.85;;;2.45;;
45730;SDS011;31440;48.584;13.460;2023-01-15T01:32:25;6.82;;;3.95;;
45730;SDS011;31440;48.584;13.460;2023-01-15T01:35:30;5.05;;;2.90;;
45730;SDS011;31440;48.584;13.460;2023-01-15T01:38:34;6.45;;;2.40;;
45730;SDS011;31440;48.584;13.460;2023-01-15T01:41:39;7.25;;;1.88;;
45730;SDS011;31440;48.584;13.460;2023-01-15T01:47:48;3.20;;;2.03;;
45730;SDS011;31440;48.584;13.460;2023-01-15T01:50:54;5.53;;;2.70;;
45730;SDS011;31440;48.584;13.460;2023-01-15T01:54:01;5.85;;;2.67;;
45730;SDS011;31440;48.584;13.460;2023-01-15T01:57:06;3.63;;;2.08;;
45730;SDS011;31440;48.584;13.460;2023-01-15T02:00:13;3.95;;;2.55;;
45730;SDS011;31440;48.584;13.460;2023-01-15T02:03:19;6.32;;;2.53;;
45730;SDS011;31440;48.584;13.460;2023-01-15T02:06:30;3.45;;;1.67;;
45730;SDS011;31440;48.584;13.460;2023-01-15T02:09:35;2.83;;;1.30;;
45730;SDS011;31440;48.584;13.460;2023-01-15T02:12:40;4.20;;;1.42;;
45730;SDS011;31440;48.584;13.460;2023-01-15T02:15:49;7.07;;;1.67;;
45730;SDS011;31440;48.584;13.460;2023-01-15T02:19:16;1.75;;;1.35;;
45730;SDS011;31440;48.584;13.460;2023-01-15T02:32:45;4.35;;;1.70;;
45730;SDS011;31440;48.584;13.460;2023-01-15T02:36:18;2.22;;;1.33;;
45730;SDS011;31440;48.584;13.460;2023-01-15T02:39:27;2.50;;;1.20;;
45730;SDS011;31440;48.584;13.460;2023-01-15T02:42:35;5.68;;;1.58;;
45730;SDS011;31440;48.584;13.460;2023-01-15T02:45:43;3.00;;;1.70;;
45730;SDS011;31440;48.584;13.460;2023-01-15T02:48:51;2.15;;;1.20;;
45730;SDS011;31440;48.584;13.460;2023-01-15T02:55:17;3.08;;;1.40;;
45730;SDS011;31440;48.584;13.460;2023-01-15T02:58:29;3.95;;;1.65;;
45730;SDS011;31440;48.584;13.460;2023-01-15T03:01:41;2.75;;;1.70;;
45730;SDS011;31440;48.584;13.460;2023-01-15T03:04:52;2.60;;;1.65;;
45730;SDS011;31440;48.584;13.460;2023-01-15T03:07:59;1.67;;;1.52;;
45730;SDS011;31440;48.584;13.460;2023-01-15T03:11:16;3.92;;;1.30;;
45730;SDS011;31440;48.584;13.460;2023-01-15T03:14:28;4.93;;;1.58;;
45730;SDS011;31440;48.584;13.460;2023-01-15T03:17:45;2.90;;;1.67;;
45730;SDS011;31440;48.584;13.460;2023-01-15T03:20:58;2.20;;;1.50;;
45730;SDS011;31440;48.584;13.460;2023-01-15T03:24:07;3.88;;;1.95;;
45730;SDS011;31440;48.584;13.460;2023-01-15T03:27:14;3.78;;;2.05;;
45730;SDS011;31440;48.584;13.460;2023-01-15T03:30:23;2.10;;;1.25;;
45730;SDS011;31440;48.584;13.460;2023-01-15T03:33:28;2.33;;;1.33;;
45730;SDS011;31440;48.584;13.460;2023-01-15T03:36:34;6.32;;;1.77;;
45730;SDS011;31440;48.584;13.460;2023-01-15T03:39:39;2.70;;;1.77;;
45730;SDS011;31440;48.584;13.460;2023-01-15T03:42:57;2.67;;;1.58;;
45730;SDS011;31440;48.584;13.460;2023-01-15T03:50:17;3.90;;;1.50;;
45730;SDS011;31440;48.584;13.460;2023-01-15T03:53:32;6.32;;;1.80;;
45730;SDS011;31440;48.584;13.460;2023-01-15T03:57:02;3.88;;;1.40;;
45730;SDS011;31440;48.584;13.460;2023-01-15T04:00:14;3.63;;;1.48;;
45730;SDS011;31440;48.584;13.460;2023-01-15T04:03:31;6.07;;;1.70;;
45730;SDS011;31440;48.584;13.460;2023-01-15T04:06:37;3.63;;;1.38;;
45730;SDS011;31440;48.584;13.460;2023-01-15T04:09:45;1.23;;;1.10;;
45730;SDS011;31440;48.584;13.460;2023-01-15T04:12:50;4.03;;;1.58;;
45730;SDS011;31440;48.584;13.460;2023-01-15T04:15:55;4.93;;;1.48;;
45730;SDS011;31440;48.584;13.460;2023-01-15T04:19:01;3.55;;;2.20;;
45730;SDS011;31440;48.584;13.460;2023-01-15T04:22:09;3.22;;;1.48;;
45730;SDS011;31440;48.584;13.460;2023-01-15T04:25:15;1.95;;;1.15;;
45730;SDS011;31440;48.584;13.460;2023-01-15T04:28:19;3.00;;;1.38;;
45730;SDS011;31440;48.584;13.460;2023-01-15T04:31:24;2.97;;;2.03;;
45730;SDS011;31440;48.584;13.460;2023-01-15T04:34:29;2.30;;;1.50;;
45730;SDS011;31440;48.584;13.460;2023-01-15T04:37:33;2.50;;;1.77;;
45730;SDS011;31440;48.584;13.460;2023-01-15T04:40:38;2.78;;;1.50;;
45730;SDS011;31440;48.584;13.460;2023-01-15T04:47:12;4.30;;;1.38;;
45730;SDS011;31440;48.584;13.460;2023-01-15T04:50:16;4.80;;;1.60;;
45730;SDS011;31440;48.584;13.460;2023-01-15T04:53:21;5.65;;;1.70;;
45730;SDS011;31440;48.584;13.460;2023-01-15T04:56:26;3.45;;;1.50;;
45730;SDS011;31440;48.584;13.460;2023-01-15T04:59:31;3.35;;;1.67;;
45730;SDS011;31440;48.584;13.460;2023-01-15T05:02:36;3.20;;;1.75;;
45730;SDS011;31440;48.584;13.460;2023-01-15T05:05:40;3.17;;;1.67;;
45730;SDS011;31440;48.584;13.460;2023-01-15T05:08:45;7.10;;;1.90;;
45730;SDS011;31440;48.584;13.460;2023-01-15T05:11:50;5.72;;;2.70;;
45730;SDS011;31440;48.584;13.460;2023-01-15T05:14:54;5.43;;;1.92;;
45730;SDS011;31440;48.584;13.460;2023-01-15T05:17:59;4.18;;;1.63;;
45730;SDS011;31440;48.584;13.460;2023-01-15T05:21:04;5.22;;;1.95;;
45730;SDS011;31440;48.584;13.460;2023-01-15T05:24:13;13.45;;;2.47;;
45730;SDS011;31440;48.584;13.460;2023-01-15T05:27:19;2.30;;;2.10;;
45730;SDS011;31440;48.584;13.460;2023-01-15T05:30:24;5.80;;;2.00;;
45730;SDS011;31440;48.584;13.460;2023-01-15T05:33:28;2.78;;;1.50;;
45730;SDS011;31440;48.584;13.460;2023-01-15T05:36:33;3.55;;;1.73;;
45730;SDS011;31440;48.584;13.460;2023-01-15T05:39:40;5.47;;;1.92;;
45730;SDS011;31440;48.584;13.460;2023-01-15T05:42:45;5.53;;;1.92;;
45730;SDS011;31440;48.584;13.460;2023-01-15T05:45:50;5.22;;;1.73;;
45730;SDS011;31440;48.584;13.460;2023-01-15T05:48:58;4.45;;;2.35;;
45730;SDS011;31440;48.584;13.460;2023-01-15T05:52:04;4.57;;;1.92;;
45730;SDS011;31440;48.584;13.460;2023-01-15T05:55:09;5.05;;;1.60;;
45730;SDS011;31440;48.584;13.460;2023-01-15T05:58:14;2.92;;;1.73;;
45730;SDS011;31440;48.584;13.460;2023-01-15T06:01:18;3.65;;;1.70;;
45730;SDS011;31440;48.584;13.460;2023-01-15T06:04:24;4.72;;;1.90;;
45730;SDS011;31440;48.584;13.460;2023-01-15T06:07:30;4.30;;;1.80;;
45730;SDS011;31440;48.584;13.460;2023-01-15T06:10:34;6.22;;;2.75;;
45730;SDS011;31440;48.584;13.460;2023-01-15T06:13:39;4.15;;;1.60;;
45730;SDS011;31440;48.584;13.460;2023-01-15T06:16:44;7.72;;;1.50;;
45730;SDS011;31440;48.584;13.460;2023-01-15T06:19:49;3.38;;;1.77;;
45730;SDS011;31440;48.584;13.460;2023-01-15T06:22:54;4.53;;;2.72;;
45730;SDS011;31440;48.584;13.460;2023-01-15T06:25:59;6.95;;;2.10;;
45730;SDS011;31440;48.584;13.460;2023-01-15T06:29:04;2.53;;;1.42;;
45730;SDS011;31440;48.584;13.460;2023-01-15T06:32:09;4.50;;;2.17;;
45730;SDS011;31440;48.584;13.460;2023-01-15T06:35:14;2.75;;;1.98;;
45730;SDS011;31440;48.584;13.460;2023-01-15T06:38:18;3.35;;;1.75;;
45730;SDS011;31440;48.584;13.460;2023-01-15T06:41:23;6.68;;;2.25;;
45730;SDS011;31440;48.584;13.460;2023-01-15T06:44:47;3.05;;;2.20;;
45730;SDS011;31440;48.584;13.460;2023-01-15T06:48:10;6.65;;;2.08;;
45730;SDS011;31440;48.584;13.460;2023-01-15T06:51:15;3.38;;;1.92;;
45730;SDS011;31440;48.584;13.460;2023-01-15T06:54:23;3.22;;;2.03;;
45730;SDS011;31440;48.584;13.460;2023-01-15T06:57:28;2.80;;;1.50;;
45730;SDS011;31440;48.584;13.460;2023-01-15T07:00:32;5.00;;;1.92;;
45730;SDS011;31440;48.584;13.460;2023-01-15T07:03:37;4.75;;;2.28;;
45730;SDS011;31440;48.584;13.460;2023-01-15T07:06:42;5.93;;;1.88;;
45730;SDS011;31440;48.584;13.460;2023-01-15T07:09:47;3.95;;;1.70;;
45730;SDS011;31440;48.584;13.460;2023-01-15T07:12:52;2.63;;;1.67;;
45730;SDS011;31440;48.584;13.460;2023-01-15T07:16:00;9.88;;;3.28;;
45730;SDS011;31440;48.584;13.460;2023-01-15T07:19:07;9.55;;;2.75;;
45730;SDS011;31440;48.584;13.460;2023-01-15T07:22:12;3.30;;;2.08;;
45730;SDS011;31440;48.584;13.460;2023-01-15T07:25:17;3.50;;;1.80;;
45730;SDS011;31440;48.584;13.460;2023-01-15T07:28:22;3.90;;;2.05;;
45730;SDS011;31440;48.584;13.460;2023-01-15T07:31:27;3.97;;;1.98;;
45730;SDS011;31440;48.584;13.460;2023-01-15T07:34:32;4.85;;;1.80;;
45730;SDS011;31440;48.584;13.460;2023-01-15T07:37:37;3.75;;;2.10;;
45730;SDS011;31440;48.584;13.460;2023-01-15T07:40:43;4.97;;;1.55;;
45730;SDS011;31440;48.584;13.460;2023-01-15T07:43:47;3.25;;;1.55;;
45730;SDS011;31440;48.584;13.460;2023-01-15T07:50:43;2.25;;;1.80;;
45730;SDS011;31440;48.584;13.460;2023-01-15T07:53:47;5.20;;;2.22;;
45730;SDS011;31440;48.584;13.460;2023-01-15T07:56:52;4.00;;;1.80;;
45730;SDS011;31440;48.584;13.460;2023-01-15T07:59:57;5.47;;;2.70;;
45730;SDS011;31440;48.584;13.460;2023-01-15T08:03:01;5.43;;;2.92;;
45730;SDS011;31440;48.584;13.460;2023-01-15T08:06:06;4.60;;;2.42;;
45730;SDS011;31440;48.584;13.460;2023-01-15T08:09:11;3.22;;;1.95;;
45730;SDS011;31440;48.584;13.460;2023-01-15T08:12:16;3.45;;;2.25;;
45730;SDS011;31440;48.584;13.460;2023-01-15T08:15:39;8.85;;;2.80;;
45730;SDS011;31440;48.584;13.460;2023-01-15T08:18:46;3.72;;;2.03;;
45730;SDS011;31440;48.584;13.460;2023-01-15T08:21:50;4.30;;;2.15;;
45730;SDS011;31440;48.584;13.460;2023-01-15T08:24:55;3.95;;;2.00;;
45730;SDS011;31440;48.584;13.460;2023-01-15T08:28:00;5.05;;;2.17;;
45730;SDS011;31440;48.584;13.460;2023-01-15T08:31:06;2.88;;;2.20;;
45730;SDS011;31440;48.584;13.460;2023-01-15T08:34:11;4.82;;;2.20;;
45730;SDS011;31440;48.584;13.460;2023-01-15T08:37:16;2.78;;;1.80;;
45730;SDS011;31440;48.584;13.460;2023-01-15T08:40:21;8.77;;;2.13;;
45730;SDS011;31440;48.584;13.460;2023-01-15T08:43:27;3.85;;;2.05;;
45730;SDS011;31440;48.584;13.460;2023-01-15T08:46:34;2.92;;;2.08;;
45730;SDS011;31440;48.584;13.460;2023-01-15T08:49:39;3.30;;;1.65;;
45730;SDS011;31440;48.584;13.460;2023-01-15T08:52:44;2.88;;;1.45;;
45730;SDS011;31440;48.584;13.460;2023-01-15T08:55:48;4.10;;;1.98;;
45730;SDS011;31440;48.584;13.460;2023-01-15T08:58:54;3.88;;;1.63;;
45730;SDS011;31440;48.584;13.460;2023-01-15T09:01:58;1.23;;;1.13;;
45730;SDS011;31440;48.584;13.460;2023-01-15T09:05:04;4.05;;;1.60;;
45730;SDS011;31440;48.584;13.460;2023-01-15T09:08:09;2.13;;;1.00;;
45730;SDS011;31440;48.584;13.460;2023-01-15T09:11:13;2.20;;;1.42;;
45730;SDS011;31440;48.584;13.460;2023-01-15T09:14:18;3.75;;;1.65;;
45730;SDS011;31440;48.584;13.460;2023-01-15T09:17:44;2.35;;;1.50;;
45730;SDS011;31440;48.584;13.460;2023-01-15T09:20:48;3.75;;;2.05;;
45730;SDS011;31440;48.584;13.460;2023-01-15T09:23:53;4.47;;;2.15;;
45730;SDS011;31440;48.584;13.460;2023-01-15T09:26:57;4.75;;;2.65;;
45730;SDS011;31440;48.584;13.460;2023-01-15T09:30:02;3.15;;;1.60;;
45730;SDS011;31440;48.584;13.460;2023-01-15T09:33:08;3.95;;;2.05;;
45730;SDS011;31440;48.584;13.460;2023-01-15T09:36:15;7.22;;;2.13;;
45730;SDS011;31440;48.584;13.460;2023-01-15T09:39:25;5.18;;;1.98;;
45730;SDS011;31440;48.584;13.460;2023-01-15T09:42:50;2.53;;;1.60;;
45730;SDS011;31440;48.584;13.460;2023-01-15T09:46:00;4.78;;;2.00;;
45730;SDS011;31440;48.584;13.460;2023-01-15T09:52:58;3.45;;;1.77;;
45730;SDS011;31440;48.584;13.460;2023-01-15T09:56:19;4.28;;;2.17;;
45730;SDS011;31440;48.584;13.460;2023-01-15T09:59:33;4.97;;;2.28;;
45730;SDS011;31440;48.584;13.460;2023-01-15T10:06:21;2.95;;;2.28;;
45730;SDS011;31440;48.584;13.460;2023-01-15T10:09:32;3.42;;;1.90;;
45730;SDS011;31440;48.584;13.460;2023-01-15T10:12:40;6.18;;;2.13;;
45730;SDS011;31440;48.584;13.460;2023-01-15T10:15:47;4.05;;;2.22;;
45730;SDS011;31440;48.584;13.460;2023-01-15T10:18:52;6.78;;;2.58;;
45730;SDS011;31440;48.584;13.460;2023-01-15T10:22:05;4.30;;;2.63;;
45730;SDS011;31440;48.584;13.460;2023-01-15T10:25:30;5.50;;;3.15;;
45730;SDS011;31440;48.584;13.460;2023-01-15T10:32:02;3.95;;;2.33;;
45730;SDS011;31440;48.584;13.460;2023-01-15T10:35:22;4.30;;;1.98;;
45730;SDS011;31440;48.584;13.460;2023-01-15T10:45:28;5.50;;;2.55;;
45730;SDS011;31440;48.584;13.460;2023-01-15T10:48:38;6.20;;;3.55;;
45730;SDS011;31440;48.584;13.460;2023-01-15T10:51:49;5.70;;;2.83;;
45730;SDS011;31440;48.584;13.460;2023-01-15T11:01:43;6.03;;;2.70;;
45730;SDS011;31440;48.584;13.460;2023-01-15T11:04:47;5.65;;;3.00;;
45730;SDS011;31440;48.584;13.460;2023-01-15T11:07:52;3.65;;;3.08;;
45730;SDS011;31440;48.584;13.460;2023-01-15T11:11:18;6.20;;;3.03;;
45730;SDS011;31440;48.584;13.460;2023-01-15T11:14:56;7.50;;;3.35;;
45730;SDS011;31440;48.584;13.460;2023-01-15T11:18:23;3.70;;;2.13;;
45730;SDS011;31440;48.584;13.460;2023-01-15T11:21:52;4.45;;;2.30;;
45730;SDS011;31440;48.584;13.460;2023-01-15T11:24:57;5.97;;;2.30;;
45730;SDS011;31440;48.584;13.460;2023-01-15T11:28:05;4.18;;;2.35;;
45730;SDS011;31440;48.584;13.460;2023-01-15T11:31:11;2.97;;;2.53;;
45730;SDS011;31440;48.584;13.460;2023-01-15T11:34:18;4.72;;;3.22;;
45730;SDS011;31440;48.584;13.460;2023-01-15T11:37:25;6.05;;;3.22;;
45730;SDS011;31440;48.584;13.460;2023-01-15T11:40:31;6.95;;;2.75;;
45730;SDS011;31440;48.584;13.460;2023-01-15T11:43:35;5.82;;;3.35;;
45730;SDS011;31440;48.584;13.460;2023-01-15T11:46:59;7.70;;;2.67;;
45730;SDS011;31440;48.584;13.460;2023-01-15T11:50:22;4.85;;;2.55;;
45730;SDS011;31440;48.584;13.460;2023-01-15T11:53:47;3.78;;;1.88;;
45730;SDS011;31440;48.584;13.460;2023-01-15T11:56:55;2.95;;;1.73;;
45730;SDS011;31440;48.584;13.460;2023-01-15T12:00:00;3.40;;;1.85;;
45730;SDS011;31440;48.584;13.460;2023-01-15T12:03:12;3.33;;;1.70;;
45730;SDS011;31440;48.584;13.460;2023-01-15T12:06:26;1.90;;;1.42;;
45730;SDS011;31440;48.584;13.460;2023-01-15T12:09:40;3.95;;;1.80;;
45730;SDS011;31440;48.584;13.460;2023-01-15T12:13:19;2.08;;;1.50;;
45730;SDS011;31440;48.584;13.460;2023-01-15T12:16:41;1.83;;;1.20;;
45730;SDS011;31440;48.584;13.460;2023-01-15T12:19:58;2.40;;;1.65;;
45730;SDS011;31440;48.584;13.460;2023-01-15T12:26:26;1.67;;;0.80;;
45730;SDS011;31440;48.584;13.460;2023-01-15T12:29:44;1.25;;;0.80;;
45730;SDS011;31440;48.584;13.460;2023-01-15T12:36:25;1.10;;;1.00;;
45730;SDS011;31440;48.584;13.460;2023-01-15T12:39:43;1.08;;;0.98;;
45730;SDS011;31440;48.584;13.460;2023-01-15T12:42:53;0.30;;;0.30;;
45730;SDS011;31440;48.584;13.460;2023-01-15T12:46:21;0.30;;;0.30;;
45730;SDS011;31440;48.584;13.460;2023-01-15T12:49:48;0.47;;;0.47;;
45730;SDS011;31440;48.584;13.460;2023-01-15T12:53:02;0.30;;;0.30;;
45730;SDS011;31440;48.584;13.460;2023-01-15T12:57:02;0.52;;;0.40;;
45730;SDS011;31440;48.584;13.460;2023-01-15T12:59:59;0.35;;;0.35;;
45730;SDS011;31440;48.584;13.460;2023-01-15T13:03:25;1.02;;;0.52;;
45730;SDS011;31440;48.584;13.460;2023-01-15T13:06:33;0.50;;;0.40;;
45730;SDS011;31440;48.584;13.460;2023-01-15T13:10:16;0.45;;;0.38;;
45730;SDS011;31440;48.584;13.460;2023-01-15T13:13:23;0.28;;;0.28;;
45730;SDS011;31440;48.584;13.460;2023-01-15T13:19:44;0.38;;;0.38;;
45730;SDS011;31440;48.584;13.460;2023-01-15T13:23:03;0.60;;;0.40;;
45730;SDS011;31440;48.584;13.460;2023-01-15T13:26:45;0.22;;;0.22;;
45730;SDS011;31440;48.584;13.460;2023-01-15T13:33:40;0.30;;;0.30;;
45730;SDS011;31440;48.584;13.460;2023-01-15T13:36:55;0.20;;;0.20;;
45730;SDS011;31440;48.584;13.460;2023-01-15T13:43:40;0.20;;;0.20;;
45730;SDS011;31440;48.584;13.460;2023-01-15T13:46:47;0.40;;;0.30;;
45730;SDS011;31440;48.584;13.460;2023-01-15T13:50:05;0.20;;;0.20;;
45730;SDS011;31440;48.584;13.460;2023-01-15T13:56:39;1.70;;;0.40;;
45730;SDS011;31440;48.584;13.460;2023-01-15T13:59:44;0.38;;;0.32;;
45730;SDS011;31440;48.584;13.460;2023-01-15T14:02:53;0.30;;;0.30;;
45730;SDS011;31440;48.584;13.460;2023-01-15T14:06:01;0.30;;;0.25;;
45730;SDS011;31440;48.584;13.460;2023-01-15T14:09:10;1.52;;;0.30;;
45730;SDS011;31440;48.584;13.460;2023-01-15T14:26:13;0.45;;;0.45;;
45730;SDS011;31440;48.584;13.460;2023-01-15T14:29:48;0.50;;;0.50;;
45730;SDS011;31440;48.584;13.460;2023-01-15T14:33:05;0.82;;;0.45;;
45730;SDS011;31440;48.584;13.460;2023-01-15T14:36:24;0.68;;;0.68;;
45730;SDS011;31440;48.584;13.460;2023-01-15T14:42:45;0.87;;;0.43;;
45730;SDS011;31440;48.584;13.460;2023-01-15T14:46:08;0.57;;;0.50;;
45730;SDS011;31440;48.584;13.460;2023-01-15T14:49:28;0.50;;;0.40;;
45730;SDS011;31440;48.584;13.460;2023-01-15T14:52:33;0.40;;;0.40;;
45730;SDS011;31440;48.584;13.460;2023-01-15T15:02:34;1.33;;;0.40;;
45730;SDS011;31440;48.584;13.460;2023-01-15T15:05:42;0.65;;;0.50;;
45730;SDS011;31440;48.584;13.460;2023-01-15T15:08:49;0.50;;;0.40;;
45730;SDS011;31440;48.584;13.460;2023-01-15T15:12:01;0.30;;;0.30;;
45730;SDS011;31440;48.584;13.460;2023-01-15T15:19:25;0.50;;;0.50;;
45730;SDS011;31440;48.584;13.460;2023-01-15T15:25:39;1.75;;;0.50;;
45730;SDS011;31440;48.584;13.460;2023-01-15T15:32:02;0.40;;;0.40;;
45730;SDS011;31440;48.584;13.460;2023-01-15T15:35:23;0.43;;;0.40;;
45730;SDS011;31440;48.584;13.460;2023-01-15T15:38:32;0.57;;;0.32;;
45730;SDS011;31440;48.584;13.460;2023-01-15T15:45:06;1.02;;;0.73;;
45730;SDS011;31440;48.584;13.460;2023-01-15T15:48:38;0.50;;;0.50;;
45730;SDS011;31440;48.584;13.460;2023-01-15T15:51:49;0.32;;;0.32;;
45730;SDS011;31440;48.584;13.460;2023-01-15T15:54:58;0.40;;;0.40;;
45730;SDS011;31440;48.584;13.460;2023-01-15T15:58:04;1.15;;;0.50;;
45730;SDS011;31440;48.584;13.460;2023-01-15T16:01:11;0.32;;;0.32;;
45730;SDS011;31440;48.584;13.460;2023-01-15T16:04:17;2.65;;;0.35;;
45730;SDS011;31440;48.584;13.460;2023-01-15T16:07:24;0.43;;;0.43;;
45730;SDS011;31440;48.584;13.460;2023-01-15T16:10:41;0.52;;;0.52;;
45730;SDS011;31440;48.584;13.460;2023-01-15T16:13:47;0.40;;;0.40;;
45730;SDS011;31440;48.584;13.460;2023-01-15T16:16:56;0.38;;;0.38;;
45730;SDS011;31440;48.584;13.460;2023-01-15T16:20:02;0.47;;;0.47;;
45730;SDS011;31440;48.584;13.460;2023-01-15T16:23:23;0.65;;;0.35;;
45730;SDS011;31440;48.584;13.460;2023-01-15T16:26:43;0.30;;;0.30;;
45730;SDS011;31440;48.584;13.460;2023-01-15T16:29:51;1.27;;;0.50;;
45730;SDS011;31440;48.584;13.460;2023-01-15T16:33:03;0.30;;;0.30;;
45730;SDS011;31440;48.584;13.460;2023-01-15T16:36:10;0.95;;;0.40;;
45730;SDS011;31440;48.584;13.460;2023-01-15T16:42:34;0.70;;;0.65;;
45730;SDS011;31440;48.584;13.460;2023-01-15T16:49:26;0.55;;;0.55;;
45730;SDS011;31440;48.584;13.460;2023-01-15T16:52:37;0.85;;;0.60;;
45730;SDS011;31440;48.584;13.460;2023-01-15T16:55:52;2.33;;;0.50;;
45730;SDS011;31440;48.584;13.460;2023-01-15T16:58:59;3.30;;;0.50;;
45730;SDS011;31440;48.584;13.460;2023-01-15T17:02:13;1.15;;;0.68;;
45730;SDS011;31440;48.584;13.460;2023-01-15T17:08:29;0.63;;;0.63;;
45730;SDS011;31440;48.584;13.460;2023-01-15T17:11:40;0.43;;;0.43;;
45730;SDS011;31440;48.584;13.460;2023-01-15T17:14:44;0.55;;;0.40;;
45730;SDS011;31440;48.584;13.460;2023-01-15T17:17:49;0.60;;;0.60;;
45730;SDS011;31440;48.584;13.460;2023-01-15T17:20:55;0.95;;;0.60;;
45730;SDS011;31440;48.584;13.460;2023-01-15T17:24:00;0.50;;;0.50;;
45730;SDS011;31440;48.584;13.460;2023-01-15T17:27:07;0.73;;;0.50;;
45730;SDS011;31440;48.584;13.460;2023-01-15T17:30:11;1.20;;;0.60;;
45730;SDS011;31440;48.584;13.460;2023-01-15T17:33:17;0.73;;;0.60;;
45730;SDS011;31440;48.584;13.460;2023-01-15T17:36:22;0.82;;;0.50;;
45730;SDS011;31440;48.584;13.460;2023-01-15T17:39:27;0.60;;;0.60;;
45730;SDS011;31440;48.584;13.460;2023-01-15T17:45:37;0.65;;;0.60;;
45730;SDS011;31440;48.584;13.460;2023-01-15T17:48:41;0.60;;;0.55;;
45730;SDS011;31440;48.584;13.460;2023-01-15T17:51:46;1.02;;;0.70;;
45730;SDS011;31440;48.584;13.460;2023-01-15T17:54:50;1.05;;;0.60;;
45730;SDS011;31440;48.584;13.460;2023-01-15T17:58:13;2.00;;;0.60;;
45730;SDS011;31440;48.584;13.460;2023-01-15T18:01:37;1.58;;;0.70;;
45730;SDS011;31440;48.584;13.460;2023-01-15T18:05:04;1.13;;;0.63;;
45730;SDS011;31440;48.584;13.460;2023-01-15T18:08:30;0.40;;;0.40;;
45730;SDS011;31440;48.584;13.460;2023-01-15T18:11:36;0.70;;;0.70;;
45730;SDS011;31440;48.584;13.460;2023-01-15T18:14:41;0.55;;;0.50;;
45730;SDS011;31440;48.584;13.460;2023-01-15T18:17:45;0.88;;;0.70;;
45730;SDS011;31440;48.584;13.460;2023-01-15T18:20:50;1.40;;;0.60;;
45730;SDS011;31440;48.584;13.460;2023-01-15T18:23:55;0.60;;;0.50;;
45730;SDS011;31440;48.584;13.460;2023-01-15T18:27:00;0.65;;;0.65;;
45730;SDS011;31440;48.584;13.460;2023-01-15T18:30:05;0.40;;;0.40;;
45730;SDS011;31440;48.584;13.460;2023-01-15T18:33:10;1.30;;;0.73;;
45730;SDS011;31440;48.584;13.460;2023-01-15T18:36:14;0.77;;;0.65;;
45730;SDS011;31440;48.584;13.460;2023-01-15T18:39:19;1.10;;;0.70;;
45730;SDS011;31440;48.584;13.460;2023-01-15T18:42:24;0.60;;;0.60;;
45730;SDS011;31440;48.584;13.460;2023-01-15T18:49:10;1.23;;;0.98;;
45730;SDS011;31440;48.584;13.460;2023-01-15T18:52:15;0.80;;;0.60;;
45730;SDS011;31440;48.584;13.460;2023-01-15T18:55:41;0.93;;;0.63;;
45730;SDS011;31440;48.584;13.460;2023-01-15T18:58:46;0.73;;;0.70;;
45730;SDS011;31440;48.584;13.460;2023-01-15T19:01:51;0.80;;;0.80;;
45730;SDS011;31440;48.584;13.460;2023-01-15T19:08:03;2.22;;;0.90;;
45730;SDS011;31440;48.584;13.460;2023-01-15T19:11:11;0.85;;;0.70;;
45730;SDS011;31440;48.584;13.460;2023-01-15T19:14:16;0.82;;;0.80;;
45730;SDS011;31440;48.584;13.460;2023-01-15T19:17:39;1.50;;;0.82;;
45730;SDS011;31440;48.584;13.460;2023-01-15T19:21:06;1.08;;;0.98;;
45730;SDS011;31440;48.584;13.460;2023-01-15T19:24:12;1.63;;;0.90;;
45730;SDS011;31440;48.584;13.460;2023-01-15T19:27:16;1.05;;;0.90;;
45730;SDS011;31440;48.584;13.460;2023-01-15T19:30:21;1.10;;;1.00;;
45730;SDS011;31440;48.584;13.460;2023-01-15T19:33:26;1.40;;;1.08;;
45730;SDS011;31440;48.584;13.460;2023-01-15T19:36:32;1.08;;;0.98;;
45730;SDS011;31440;48.584;13.460;2023-01-15T19:39:36;1.00;;;0.90;;
45730;SDS011;31440;48.584;13.460;2023-01-15T19:42:41;1.13;;;0.80;;
45730;SDS011;31440;48.584;13.460;2023-01-15T19:46:04;1.05;;;0.90;;
45730;SDS011;31440;48.584;13.460;2023-01-15T19:49:31;1.23;;;0.88;;
45730;SDS011;31440;48.584;13.460;2023-01-15T19:52:57;1.20;;;0.90;;
45730;SDS011;31440;48.584;13.460;2023-01-15T19:56:02;0.68;;;0.60;;
45730;SDS011;31440;48.584;13.460;2023-01-15T19:59:07;0.80;;;0.80;;
45730;SDS011;31440;48.584;13.460;2023-01-15T20:02:11;0.98;;;0.80;;
45730;SDS011;31440;48.584;13.460;2023-01-15T20:05:16;1.15;;;1.05;;
45730;SDS011;31440;48.584;13.460;2023-01-15T20:08:22;1.25;;;1.15;;
45730;SDS011;31440;48.584;13.460;2023-01-15T20:11:27;1.15;;;0.98;;
45730;SDS011;31440;48.584;13.460;2023-01-15T20:14:51;0.80;;;0.80;;
45730;SDS011;31440;48.584;13.460;2023-01-15T20:17:59;2.05;;;1.48;;
45730;SDS011;31440;48.584;13.460;2023-01-15T20:21:03;1.08;;;0.95;;
45730;SDS011;31440;48.584;13.460;2023-01-15T20:24:08;1.48;;;1.38;;
45730;SDS011;31440;48.584;13.460;2023-01-15T20:27:13;2.15;;;1.40;;
45730;SDS011;31440;48.584;13.460;2023-01-15T20:30:17;1.80;;;1.42;;
45730;SDS011;31440;48.584;13.460;2023-01-15T20:33:28;2.03;;;1.63;;
45730;SDS011;31440;48.584;13.460;2023-01-15T20:36:33;1.60;;;1.50;;
45730;SDS011;31440;48.584;13.460;2023-01-15T20:39:38;2.03;;;1.48;;
45730;SDS011;31440;48.584;13.460;2023-01-15T20:46:10;2.28;;;1.65;;
45730;SDS011;31440;48.584;13.460;2023-01-15T20:49:18;2.10;;;1.75;;
45730;SDS011;31440;48.584;13.460;2023-01-15T20:52:30;2.20;;;1.85;;
45730;SDS011;31440;48.584;13.460;2023-01-15T20:55:35;2.35;;;2.10;;
45730;SDS011;31440;48.584;13.460;2023-01-15T20:58:59;2.10;;;1.80;;
45730;SDS011;31440;48.584;13.460;2023-01-15T21:02:04;2.45;;;1.95;;